sensor_id;sensor_type;location;lat;lon;timestamp;pressure;altitude;pressure_sealevel;temperature;humidity
9525;BME280;15940;48.734;9.112;2023-04-21T00:02:08;96206.88;;;4.11;94.67
9525;BME280;15940;48.734;9.112;2023-04-21T00:04:35;96200.94;;;4.07;94.83
9525;BME280;15940;48.734;9.112;2023-04-21T00:07:02;96207.47;;;4.15;95.68
9525;BME280;15940;48.734;9.112;2023-04-21T00:09:30;96204.78;;;4.15;95.02
9525;BME280;15940;48.734;9.112;2023-04-21T00:11:57;96199.78;;;3.99;93.98
9525;BME280;15940;48.734;9.112;2023-04-21T00:14:24;96190.56;;;4.00;95.05
9525;BME280;15940;48.734;9.112;2023-04-21T00:16:51;96189.63;;;4.12;95.13
9525;BME280;15940;48.734;9.112;2023-04-21T00:19:18;96189.63;;;4.12;94.87
9525;BME280;15940;48.734;9.112;2023-04-21T00:21:45;96190.06;;;4.11;94.93
9525;BME280;15940;48.734;9.112;2023-04-21T00:24:12;96187.66;;;4.22;94.81
9525;BME280;15940;48.734;9.112;2023-04-21T00:26:40;96196.84;;;4.30;95.22
9525;BME280;15940;48.734;9.112;2023-04-21T00:29:07;96194.34;;;4.26;94.54
9525;BME280;15940;48.734;9.112;2023-04-21T00:31:34;96189.41;;;4.25;94.40
9525;BME280;15940;48.734;9.112;2023-04-21T00:34:00;96189.41;;;4.25;94.80
9525;BME280;15940;48.734;9.112;2023-04-21T00:36:27;96180.06;;;4.20;94.74
9525;BME280;15940;48.734;9.112;2023-04-21T00:38:54;96186.44;;;4.23;94.16
9525;BME280;15940;48.734;9.112;2023-04-21T00:41:21;96174.41;;;4.18;94.10
9525;BME280;15940;48.734;9.112;2023-04-21T00:44:03;96179.06;;;4.09;93.79
9525;BME280;15940;48.734;9.112;2023-04-21T00:46:31;96175.47;;;4.12;94.61
9525;BME280;15940;48.734;9.112;2023-04-21T00:48:58;96175.19;;;4.10;93.97
9525;BME280;15940;48.734;9.112;2023-04-21T00:51:27;96173.81;;;4.14;94.78
9525;BME280;15940;48.734;9.112;2023-04-21T00:53:55;96174.81;;;4.26;94.17
9525;BME280;15940;48.734;9.112;2023-04-21T00:56:22;96173.50;;;4.21;93.84
9525;BME280;15940;48.734;9.112;2023-04-21T00:58:49;96168.47;;;4.14;94.25
9525;BME280;15940;48.734;9.112;2023-04-21T01:01:18;96182.59;;;4.15;94.15
9525;BME280;15940;48.734;9.112;2023-04-21T01:03:45;96170.28;;;4.08;94.38
9525;BME280;15940;48.734;9.112;2023-04-21T01:06:12;96162.09;;;4.03;94.39
9525;BME280;15940;48.734;9.112;2023-04-21T01:08:39;96162.38;;;4.05;95.38
9525;BME280;15940;48.734;9.112;2023-04-21T01:11:11;96170.31;;;3.99;93.64
9525;BME280;15940;48.734;9.112;2023-04-21T01:13:38;96167.03;;;3.95;94.12
9525;BME280;15940;48.734;9.112;2023-04-21T01:16:06;96159.31;;;3.88;94.75
9525;BME280;15940;48.734;9.112;2023-04-21T01:18:34;96156.34;;;3.86;94.38
9525;BME280;15940;48.734;9.112;2023-04-21T01:21:02;96155.31;;;3.83;94.14
9525;BME280;15940;48.734;9.112;2023-04-21T01:23:31;96162.81;;;3.70;94.80
9525;BME280;15940;48.734;9.112;2023-04-21T01:25:58;96161.16;;;3.72;94.17
9525;BME280;15940;48.734;9.112;2023-04-21T01:28:25;96149.97;;;3.74;95.01
9525;BME280;15940;48.734;9.112;2023-04-21T01:30:52;96153.13;;;3.63;94.11
9525;BME280;15940;48.734;9.112;2023-04-21T01:33:20;96161.31;;;3.60;94.75
9525;BME280;15940;48.734;9.112;2023-04-21T01:35:47;96161.00;;;3.67;95.27
9525;BME280;15940;48.734;9.112;2023-04-21T01:38:15;96173.19;;;3.77;94.99
9525;BME280;15940;48.734;9.112;2023-04-21T01:40:48;96172.78;;;3.60;93.54
9525;BME280;15940;48.734;9.112;2023-04-21T01:43:18;96166.53;;;3.54;93.62
9525;BME280;15940;48.734;9.112;2023-04-21T01:45:46;96167.47;;;3.33;92.83
9525;BME280;15940;48.734;9.112;2023-04-21T01:48:13;96168.94;;;3.43;93.89
9525;BME280;15940;48.734;9.112;2023-04-21T01:50:40;96175.03;;;3.25;93.39
9525;BME280;15940;48.734;9.112;2023-04-21T01:53:07;96166.41;;;3.12;93.46
9525;BME280;15940;48.734;9.112;2023-04-21T01:55:34;96172.50;;;3.40;95.98
9525;BME280;15940;48.734;9.112;2023-04-21T01:58:03;96163.44;;;3.37;94.71
9525;BME280;15940;48.734;9.112;2023-04-21T02:00:30;96157.94;;;3.32;94.26
9525;BME280;15940;48.734;9.112;2023-04-21T02:02:56;96166.41;;;3.30;94.82
9525;BME280;15940;48.734;9.112;2023-04-21T02:05:23;96159.44;;;3.42;95.59
9525;BME280;15940;48.734;9.112;2023-04-21T02:07:50;96165.97;;;3.32;94.57
9525;BME280;15940;48.734;9.112;2023-04-21T02:10:17;96161.50;;;3.01;93.76
9525;BME280;15940;48.734;9.112;2023-04-21T02:12:44;96171.31;;;2.86;93.90
9525;BME280;15940;48.734;9.112;2023-04-21T02:15:13;96163.84;;;2.72;93.91
9525;BME280;15940;48.734;9.112;2023-04-21T02:17:39;96162.22;;;2.83;96.21
9525;BME280;15940;48.734;9.112;2023-04-21T02:20:09;96161.94;;;3.00;95.35
9525;BME280;15940;48.734;9.112;2023-04-21T02:22:36;96154.66;;;3.19;95.48
9525;BME280;15940;48.734;9.112;2023-04-21T02:25:04;96155.41;;;3.37;96.13
9525;BME280;15940;48.734;9.112;2023-04-21T02:27:31;96152.13;;;3.42;94.63
9525;BME280;15940;48.734;9.112;2023-04-21T02:29:58;96152.59;;;3.32;93.98
9525;BME280;15940;48.734;9.112;2023-04-21T02:32:27;96162.09;;;3.42;94.85
9525;BME280;15940;48.734;9.112;2023-04-21T02:34:54;96161.03;;;3.39;94.23
9525;BME280;15940;48.734;9.112;2023-04-21T02:37:21;96163.44;;;3.37;93.83
9525;BME280;15940;48.734;9.112;2023-04-21T02:39:48;96165.38;;;3.37;94.19
9525;BME280;15940;48.734;9.112;2023-04-21T02:42:15;96169.81;;;3.40;93.49
9525;BME280;15940;48.734;9.112;2023-04-21T02:44:42;96166.09;;;3.47;93.44
9525;BME280;15940;48.734;9.112;2023-04-21T02:47:09;96162.53;;;3.40;93.10
9525;BME280;15940;48.734;9.112;2023-04-21T02:49:40;96165.66;;;3.30;93.67
9525;BME280;15940;48.734;9.112;2023-04-21T02:52:08;96169.97;;;3.27;93.50
9525;BME280;15940;48.734;9.112;2023-04-21T02:54:35;96169.25;;;3.27;93.22
9525;BME280;15940;48.734;9.112;2023-04-21T02:57:02;96163.16;;;3.17;92.73
9525;BME280;15940;48.734;9.112;2023-04-21T02:59:28;96167.31;;;3.00;92.51
9525;BME280;15940;48.734;9.112;2023-04-21T03:01:55;96157.94;;;2.77;92.29
9525;BME280;15940;48.734;9.112;2023-04-21T03:04:22;96158.94;;;2.70;93.58
9525;BME280;15940;48.734;9.112;2023-04-21T03:06:51;96151.25;;;2.91;94.91
9525;BME280;15940;48.734;9.112;2023-04-21T03:09:18;96151.13;;;3.03;94.64
9525;BME280;15940;48.734;9.112;2023-04-21T03:11:45;96147.38;;;3.10;94.46
9525;BME280;15940;48.734;9.112;2023-04-21T03:14:12;96135.34;;;3.14;94.44
9525;BME280;15940;48.734;9.112;2023-04-21T03:16:39;96130.59;;;3.19;94.87
9525;BME280;15940;48.734;9.112;2023-04-21T03:19:06;96139.78;;;3.45;95.13
9525;BME280;15940;48.734;9.112;2023-04-21T03:21:36;96143.34;;;3.51;92.77
9525;BME280;15940;48.734;9.112;2023-04-21T03:24:06;96150.66;;;3.41;93.20
9525;BME280;15940;48.734;9.112;2023-04-21T03:26:34;96149.16;;;3.31;92.37
9525;BME280;15940;48.734;9.112;2023-04-21T03:29:01;96143.50;;;3.29;92.88
9525;BME280;15940;48.734;9.112;2023-04-21T03:31:27;96147.22;;;3.41;92.53
9525;BME280;15940;48.734;9.112;2023-04-21T03:33:54;96153.91;;;3.55;92.99
9525;BME280;15940;48.734;9.112;2023-04-21T03:36:21;96148.53;;;3.55;92.19
9525;BME280;15940;48.734;9.112;2023-04-21T03:38:48;96139.16;;;3.50;91.23
9525;BME280;15940;48.734;9.112;2023-04-21T03:41:17;96134.56;;;3.51;90.97
9525;BME280;15940;48.734;9.112;2023-04-21T03:43:43;96135.00;;;3.49;90.94
9525;BME280;15940;48.734;9.112;2023-04-21T03:46:17;96131.44;;;3.52;92.06
9525;BME280;15940;48.734;9.112;2023-04-21T03:48:45;96134.38;;;3.63;91.90
9525;BME280;15940;48.734;9.112;2023-04-21T03:51:12;96141.69;;;3.63;91.22
9525;BME280;15940;48.734;9.112;2023-04-21T03:53:39;96132.03;;;3.56;90.99
9525;BME280;15940;48.734;9.112;2023-04-21T03:56:07;96143.22;;;3.36;91.20
9525;BME280;15940;48.734;9.112;2023-04-21T03:58:35;96144.25;;;3.39;91.95
9525;BME280;15940;48.734;9.112;2023-04-21T04:01:04;96150.59;;;3.60;92.41
9525;BME280;15940;48.734;9.112;2023-04-21T04:03:32;96146.59;;;3.55;91.59
9525;BME280;15940;48.734;9.112;2023-04-21T04:05:59;96137.81;;;3.55;91.82
9525;BME280;15940;48.734;9.112;2023-04-21T04:08:28;96140.66;;;3.51;91.54
9525;BME280;15940;48.734;9.112;2023-04-21T04:10:55;96147.50;;;3.61;91.87
9525;BME280;15940;48.734;9.112;2023-04-21T04:13:22;96150.19;;;3.52;91.64
9525;BME280;15940;48.734;9.112;2023-04-21T04:15:52;96147.53;;;3.34;91.04
9525;BME280;15940;48.734;9.112;2023-04-21T04:18:19;96147.97;;;3.32;91.85
9525;BME280;15940;48.734;9.112;2023-04-21T04:20:46;96144.09;;;3.52;92.12
9525;BME280;15940;48.734;9.112;2023-04-21T04:23:13;96147.06;;;3.44;91.78
9525;BME280;15940;48.734;9.112;2023-04-21T04:25:40;96152.25;;;3.48;92.20
9525;BME280;15940;48.734;9.112;2023-04-21T04:28:07;96150.19;;;3.43;91.39
9525;BME280;15940;48.734;9.112;2023-04-21T04:30:35;96152.88;;;3.43;92.16
9525;BME280;15940;48.734;9.112;2023-04-21T04:33:03;96158.97;;;3.43;92.61
9525;BME280;15940;48.734;9.112;2023-04-21T04:35:30;96155.38;;;3.47;92.60
9525;BME280;15940;48.734;9.112;2023-04-21T04:37:57;96146.91;;;3.48;92.49
9525;BME280;15940;48.734;9.112;2023-04-21T04:40:24;96151.94;;;3.64;92.72
9525;BME280;15940;48.734;9.112;2023-04-21T04:42:51;96150.88;;;3.71;92.06
9525;BME280;15940;48.734;9.112;2023-04-21T04:45:19;96151.19;;;3.73;91.75
9525;BME280;15940;48.734;9.112;2023-04-21T04:47:48;96155.34;;;3.74;92.06
9525;BME280;15940;48.734;9.112;2023-04-21T04:50:16;96150.75;;;3.65;91.07
9525;BME280;15940;48.734;9.112;2023-04-21T04:52:43;96156.69;;;3.69;92.04
9525;BME280;15940;48.734;9.112;2023-04-21T04:55:12;96153.88;;;3.64;91.84
9525;BME280;15940;48.734;9.112;2023-04-21T04:57:39;96161.72;;;3.77;92.33
9525;BME280;15940;48.734;9.112;2023-04-21T05:00:08;96154.56;;;3.83;92.05
9525;BME280;15940;48.734;9.112;2023-04-21T05:02:36;96164.38;;;3.86;92.06
9525;BME280;15940;48.734;9.112;2023-04-21T05:05:05;96169.88;;;3.91;92.20
9525;BME280;15940;48.734;9.112;2023-04-21T05:07:34;96177.00;;;3.94;91.64
9525;BME280;15940;48.734;9.112;2023-04-21T05:10:01;96178.00;;;4.06;91.42
9525;BME280;15940;48.734;9.112;2023-04-21T05:12:29;96183.09;;;4.04;90.52
9525;BME280;15940;48.734;9.112;2023-04-21T05:14:56;96187.59;;;3.98;91.87
9525;BME280;15940;48.734;9.112;2023-04-21T05:17:23;96183.69;;;4.08;91.65
9525;BME280;15940;48.734;9.112;2023-04-21T05:19:50;96181.00;;;4.08;90.70
9525;BME280;15940;48.734;9.112;2023-04-21T05:22:17;96188.44;;;4.04;91.59
9525;BME280;15940;48.734;9.112;2023-04-21T05:24:45;96191.84;;;4.14;92.32
9525;BME280;15940;48.734;9.112;2023-04-21T05:27:12;96190.19;;;4.16;90.81
9525;BME280;15940;48.734;9.112;2023-04-21T05:29:39;96191.69;;;4.17;91.25
9525;BME280;15940;48.734;9.112;2023-04-21T05:32:06;96201.22;;;4.18;91.61
9525;BME280;15940;48.734;9.112;2023-04-21T05:34:33;96203.63;;;4.07;90.27
9525;BME280;15940;48.734;9.112;2023-04-21T05:37:00;96211.09;;;3.94;90.36
9525;BME280;15940;48.734;9.112;2023-04-21T05:39:27;96216.44;;;4.03;91.64
9525;BME280;15940;48.734;9.112;2023-04-21T05:41:56;96211.63;;;4.16;90.67
9525;BME280;15940;48.734;9.112;2023-04-21T05:44:23;96207.47;;;4.15;91.01
9525;BME280;15940;48.734;9.112;2023-04-21T05:46:50;96202.09;;;4.15;90.86
9525;BME280;15940;48.734;9.112;2023-04-21T05:49:17;96192.88;;;4.16;91.25
9525;BME280;15940;48.734;9.112;2023-04-21T05:51:44;96195.81;;;4.27;91.49
9525;BME280;15940;48.734;9.112;2023-04-21T05:54:11;96192.47;;;4.42;91.97
9525;BME280;15940;48.734;9.112;2023-04-21T05:56:38;96191.66;;;4.26;90.67
9525;BME280;15940;48.734;9.112;2023-04-21T05:59:06;96183.19;;;4.19;91.10
9525;BME280;15940;48.734;9.112;2023-04-21T06:01:33;96175.69;;;4.32;91.48
9525;BME280;15940;48.734;9.112;2023-04-21T06:04:00;96170.84;;;4.45;92.74
9525;BME280;15940;48.734;9.112;2023-04-21T06:06:27;96177.22;;;4.57;90.70
9525;BME280;15940;48.734;9.112;2023-04-21T06:08:54;96179.09;;;4.66;91.70
9525;BME280;15940;48.734;9.112;2023-04-21T06:11:21;96171.31;;;4.92;90.94
9525;BME280;15940;48.734;9.112;2023-04-21T06:13:48;96166.09;;;4.97;90.50
9525;BME280;15940;48.734;9.112;2023-04-21T06:16:16;96154.13;;;5.22;90.75
9525;BME280;15940;48.734;9.112;2023-04-21T06:18:43;96160.09;;;5.41;90.22
9525;BME280;15940;48.734;9.112;2023-04-21T06:21:10;96167.97;;;5.59;89.65
9525;BME280;15940;48.734;9.112;2023-04-21T06:23:37;96168.34;;;5.82;89.36
9525;BME280;15940;48.734;9.112;2023-04-21T06:26:05;96165.75;;;6.02;88.32
9525;BME280;15940;48.734;9.112;2023-04-21T06:28:34;96177.34;;;6.08;87.80
9525;BME280;15940;48.734;9.112;2023-04-21T06:31:02;96174.19;;;5.95;85.99
9525;BME280;15940;48.734;9.112;2023-04-21T06:33:30;96181.50;;;5.80;86.31
9525;BME280;15940;48.734;9.112;2023-04-21T06:35:57;96179.28;;;5.78;86.80
9525;BME280;15940;48.734;9.112;2023-04-21T06:38:24;96177.34;;;5.93;86.62
9525;BME280;15940;48.734;9.112;2023-04-21T06:40:51;96175.31;;;5.88;86.97
9525;BME280;15940;48.734;9.112;2023-04-21T06:43:19;96175.03;;;6.01;87.19
9525;BME280;15940;48.734;9.112;2023-04-21T06:45:46;96163.59;;;6.21;87.15
9525;BME280;15940;48.734;9.112;2023-04-21T06:48:12;96167.59;;;6.25;87.33
9525;BME280;15940;48.734;9.112;2023-04-21T06:50:41;96178.88;;;6.29;86.85
9525;BME280;15940;48.734;9.112;2023-04-21T06:53:10;96178.34;;;6.25;86.38
9525;BME280;15940;48.734;9.112;2023-04-21T06:55:37;96174.47;;;6.26;86.73
9525;BME280;15940;48.734;9.112;2023-04-21T06:58:04;96174.56;;;6.17;86.56
9525;BME280;15940;48.734;9.112;2023-04-21T07:00:31;96174.56;;;6.17;86.98
9525;BME280;15940;48.734;9.112;2023-04-21T07:02:58;96175.59;;;6.55;86.61
9525;BME280;15940;48.734;9.112;2023-04-21T07:05:25;96169.28;;;6.58;85.72
9525;BME280;15940;48.734;9.112;2023-04-21T07:07:53;96167.41;;;6.84;86.45
9525;BME280;15940;48.734;9.112;2023-04-21T07:10:24;96169.88;;;7.29;84.75
9525;BME280;15940;48.734;9.112;2023-04-21T07:12:51;96172.22;;;7.67;82.25
9525;BME280;15940;48.734;9.112;2023-04-21T07:15:18;96173.53;;;8.03;83.08
9525;BME280;15940;48.734;9.112;2023-04-21T07:17:45;96170.22;;;8.20;80.21
9525;BME280;15940;48.734;9.112;2023-04-21T07:20:12;96166.25;;;7.84;80.13
9525;BME280;15940;48.734;9.112;2023-04-21T07:22:39;96172.44;;;7.90;79.94
9525;BME280;15940;48.734;9.112;2023-04-21T07:25:09;96166.63;;;7.71;80.90
9525;BME280;15940;48.734;9.112;2023-04-21T07:27:37;96175.41;;;7.66;81.33
9525;BME280;15940;48.734;9.112;2023-04-21T07:30:06;96164.63;;;7.66;82.58
9525;BME280;15940;48.734;9.112;2023-04-21T07:32:33;96160.28;;;7.74;81.89
9525;BME280;15940;48.734;9.112;2023-04-21T07:35:02;96158.25;;;8.26;81.10
9525;BME280;15940;48.734;9.112;2023-04-21T07:37:29;96156.81;;;8.63;80.23
9525;BME280;15940;48.734;9.112;2023-04-21T07:39:56;96160.84;;;8.90;78.80
9525;BME280;15940;48.734;9.112;2023-04-21T07:42:24;96170.78;;;9.15;77.97
9525;BME280;15940;48.734;9.112;2023-04-21T07:44:51;96153.34;;;9.10;75.95
9525;BME280;15940;48.734;9.112;2023-04-21T07:47:19;96161.00;;;9.23;75.91
9525;BME280;15940;48.734;9.112;2023-04-21T07:49:46;96157.03;;;9.13;76.04
9525;BME280;15940;48.734;9.112;2023-04-21T07:52:13;96154.00;;;9.00;76.04
9525;BME280;15940;48.734;9.112;2023-04-21T07:54:40;96153.69;;;9.40;75.96
9525;BME280;15940;48.734;9.112;2023-04-21T07:57:09;96160.88;;;10.05;75.92
9525;BME280;15940;48.734;9.112;2023-04-21T07:59:37;96157.63;;;10.68;73.56
9525;BME280;15940;48.734;9.112;2023-04-21T08:02:04;96149.41;;;11.02;69.64
9525;BME280;15940;48.734;9.112;2023-04-21T08:04:31;96158.44;;;11.68;68.85
9525;BME280;15940;48.734;9.112;2023-04-21T08:06:58;96149.00;;;12.16;67.47
9525;BME280;15940;48.734;9.112;2023-04-21T08:09:25;96143.81;;;12.12;63.37
9525;BME280;15940;48.734;9.112;2023-04-21T08:11:52;96148.03;;;12.13;65.32
9525;BME280;15940;48.734;9.112;2023-04-21T08:14:19;96140.38;;;12.12;65.40
9525;BME280;15940;48.734;9.112;2023-04-21T08:16:48;96143.25;;;12.49;64.62
9525;BME280;15940;48.734;9.112;2023-04-21T08:19:15;96145.09;;;12.84;63.57
9525;BME280;15940;48.734;9.112;2023-04-21T08:21:42;96138.91;;;12.65;62.94
9525;BME280;15940;48.734;9.112;2023-04-21T08:24:09;96137.31;;;12.21;62.93
9525;BME280;15940;48.734;9.112;2023-04-21T08:26:36;96142.31;;;11.87;64.70
9525;BME280;15940;48.734;9.112;2023-04-21T08:29:02;96136.66;;;12.15;65.95
9525;BME280;15940;48.734;9.112;2023-04-21T08:31:31;96138.94;;;12.35;67.72
9525;BME280;15940;48.734;9.112;2023-04-21T08:34:00;96149.94;;;12.73;67.77
9525;BME280;15940;48.734;9.112;2023-04-21T08:36:27;96141.47;;;13.01;65.87
9525;BME280;15940;48.734;9.112;2023-04-21T08:38:54;96137.34;;;13.37;64.46
9525;BME280;15940;48.734;9.112;2023-04-21T08:41:21;96122.91;;;13.42;62.33
9525;BME280;15940;48.734;9.112;2023-04-21T08:43:48;96126.00;;;13.52;62.41
9525;BME280;15940;48.734;9.112;2023-04-21T08:46:15;96131.19;;;13.69;61.54
9525;BME280;15940;48.734;9.112;2023-04-21T08:48:42;96130.28;;;13.80;61.79
9525;BME280;15940;48.734;9.112;2023-04-21T08:51:10;96138.72;;;13.44;61.66
9525;BME280;15940;48.734;9.112;2023-04-21T08:53:40;96140.31;;;13.53;61.40
9525;BME280;15940;48.734;9.112;2023-04-21T08:56:07;96141.31;;;13.55;60.57
9525;BME280;15940;48.734;9.112;2023-04-21T08:58:34;96139.22;;;13.42;62.45
9525;BME280;15940;48.734;9.112;2023-04-21T09:01:01;96142.69;;;13.62;63.78
9525;BME280;15940;48.734;9.112;2023-04-21T09:03:28;96140.69;;;13.43;61.62
9525;BME280;15940;48.734;9.112;2023-04-21T09:05:57;96134.75;;;13.45;63.80
9525;BME280;15940;48.734;9.112;2023-04-21T09:08:27;96141.31;;;13.87;61.98
9525;BME280;15940;48.734;9.112;2023-04-21T09:10:56;96138.59;;;14.19;61.06
9525;BME280;15940;48.734;9.112;2023-04-21T09:13:29;96128.41;;;14.52;58.21
9525;BME280;15940;48.734;9.112;2023-04-21T09:15:57;96132.88;;;14.49;58.50
9525;BME280;15940;48.734;9.112;2023-04-21T09:18:26;96126.66;;;14.22;57.98
9525;BME280;15940;48.734;9.112;2023-04-21T09:21:05;96124.81;;;14.44;59.43
9525;BME280;15940;48.734;9.112;2023-04-21T09:23:41;96123.13;;;14.41;56.93
9525;BME280;15940;48.734;9.112;2023-04-21T09:26:08;96124.13;;;14.70;60.09
9525;BME280;15940;48.734;9.112;2023-04-21T09:28:36;96126.50;;;14.86;58.79
9525;BME280;15940;48.734;9.112;2023-04-21T09:31:03;96126.59;;;15.21;57.09
9525;BME280;15940;48.734;9.112;2023-04-21T09:33:32;96127.84;;;15.54;57.03
9525;BME280;15940;48.734;9.112;2023-04-21T09:36:00;96118.81;;;15.59;54.64
9525;BME280;15940;48.734;9.112;2023-04-21T09:38:28;96118.34;;;16.02;53.73
9525;BME280;15940;48.734;9.112;2023-04-21T09:40:59;96123.13;;;15.67;56.51
9525;BME280;15940;48.734;9.112;2023-04-21T09:43:26;96118.28;;;15.94;54.23
9525;BME280;15940;48.734;9.112;2023-04-21T09:45:55;96118.47;;;15.96;52.57
9525;BME280;15940;48.734;9.112;2023-04-21T09:48:23;96110.28;;;15.76;54.69
9525;BME280;15940;48.734;9.112;2023-04-21T09:50:54;96125.13;;;15.54;55.96
9525;BME280;15940;48.734;9.112;2023-04-21T09:53:23;96115.91;;;15.09;57.02
9525;BME280;15940;48.734;9.112;2023-04-21T09:55:53;96116.59;;;15.70;55.64
9525;BME280;15940;48.734;9.112;2023-04-21T09:58:27;96123.47;;;15.85;55.68
9525;BME280;15940;48.734;9.112;2023-04-21T10:00:57;96118.22;;;15.87;54.62
9525;BME280;15940;48.734;9.112;2023-04-21T10:03:26;96106.91;;;15.83;53.91
9525;BME280;15940;48.734;9.112;2023-04-21T10:05:54;96094.91;;;15.52;55.63
9525;BME280;15940;48.734;9.112;2023-04-21T10:08:21;96092.22;;;16.14;54.31
9525;BME280;15940;48.734;9.112;2023-04-21T10:10:48;96095.34;;;16.39;57.88
9525;BME280;15940;48.734;9.112;2023-04-21T10:13:17;96095.94;;;16.24;54.62
9525;BME280;15940;48.734;9.112;2023-04-21T10:15:46;96090.59;;;16.19;59.19
9525;BME280;15940;48.734;9.112;2023-04-21T10:18:18;96093.34;;;16.47;54.78
9525;BME280;15940;48.734;9.112;2023-04-21T10:20:53;96092.50;;;16.52;54.18
9525;BME280;15940;48.734;9.112;2023-04-21T10:23:28;96097.19;;;16.44;55.91
9525;BME280;15940;48.734;9.112;2023-04-21T10:26:02;96093.72;;;16.44;56.04
9525;BME280;15940;48.734;9.112;2023-04-21T10:28:47;96102.50;;;16.50;57.26
9525;BME280;15940;48.734;9.112;2023-04-21T10:31:25;96100.75;;;16.89;55.83
9525;BME280;15940;48.734;9.112;2023-04-21T10:34:20;96084.59;;;17.13;53.31
9525;BME280;15940;48.734;9.112;2023-04-21T10:37:10;96094.06;;;17.05;54.76
9525;BME280;15940;48.734;9.112;2023-04-21T10:39:54;96087.75;;;17.18;54.58
9525;BME280;15940;48.734;9.112;2023-04-21T10:42:33;96090.91;;;16.93;54.50
9525;BME280;15940;48.734;9.112;2023-04-21T10:45:09;96094.69;;;17.19;54.58
9525;BME280;15940;48.734;9.112;2023-04-21T10:47:46;96089.75;;;17.17;52.91
9525;BME280;15940;48.734;9.112;2023-04-21T10:50:22;96079.69;;;17.12;54.57
9525;BME280;15940;48.734;9.112;2023-04-21T10:52:57;96079.66;;;17.04;53.77
9525;BME280;15940;48.734;9.112;2023-04-21T10:55:28;96077.88;;;17.22;52.88
9525;BME280;15940;48.734;9.112;2023-04-21T10:57:56;96078.50;;;17.36;55.24
9525;BME280;15940;48.734;9.112;2023-04-21T11:00:24;96071.38;;;17.40;55.91
9525;BME280;15940;48.734;9.112;2023-04-21T11:03:00;96076.22;;;17.11;53.66
9525;BME280;15940;48.734;9.112;2023-04-21T11:05:29;96076.78;;;16.74;53.27
9525;BME280;15940;48.734;9.112;2023-04-21T11:08:13;96076.63;;;16.79;54.98
9525;BME280;15940;48.734;9.112;2023-04-21T11:11:01;96079.81;;;16.99;58.35
9525;BME280;15940;48.734;9.112;2023-04-21T11:13:28;96074.22;;;17.12;56.85
9525;BME280;15940;48.734;9.112;2023-04-21T11:16:04;96072.38;;;17.14;56.71
9525;BME280;15940;48.734;9.112;2023-04-21T11:18:37;96082.16;;;16.95;55.70
9525;BME280;15940;48.734;9.112;2023-04-21T11:21:13;96067.34;;;16.82;56.24
9525;BME280;15940;48.734;9.112;2023-04-21T11:23:49;96068.19;;;17.13;58.68
9525;BME280;15940;48.734;9.112;2023-04-21T11:26:17;96071.88;;;17.24;58.14
9525;BME280;15940;48.734;9.112;2023-04-21T11:28:47;96067.84;;;17.17;55.96
9525;BME280;15940;48.734;9.112;2023-04-21T11:31:15;96072.81;;;17.26;55.34
9525;BME280;15940;48.734;9.112;2023-04-21T11:33:43;96074.09;;;17.25;57.15
9525;BME280;15940;48.734;9.112;2023-04-21T11:36:10;96055.41;;;17.08;54.66
9525;BME280;15940;48.734;9.112;2023-04-21T11:38:39;96058.53;;;17.12;54.72
9525;BME280;15940;48.734;9.112;2023-04-21T11:41:07;96051.97;;;17.16;54.82
9525;BME280;15940;48.734;9.112;2023-04-21T11:43:35;96054.56;;;17.29;55.11
9525;BME280;15940;48.734;9.112;2023-04-21T11:46:27;96047.28;;;17.39;54.26
9525;BME280;15940;48.734;9.112;2023-04-21T11:49:03;96042.75;;;17.49;54.67
9525;BME280;15940;48.734;9.112;2023-04-21T11:51:34;96043.31;;;17.55;53.41
9525;BME280;15940;48.734;9.112;2023-04-21T11:54:03;96039.25;;;17.41;54.38
9525;BME280;15940;48.734;9.112;2023-04-21T11:56:34;96036.91;;;17.60;57.69
9525;BME280;15940;48.734;9.112;2023-04-21T11:59:06;96046.25;;;17.80;53.30
9525;BME280;15940;48.734;9.112;2023-04-21T12:01:34;96040.41;;;17.99;56.55
9525;BME280;15940;48.734;9.112;2023-04-21T12:04:03;96033.28;;;18.19;53.92
9525;BME280;15940;48.734;9.112;2023-04-21T12:06:30;96043.31;;;18.32;54.44
9525;BME280;15940;48.734;9.112;2023-04-21T12:09:00;96045.72;;;18.12;52.42
9525;BME280;15940;48.734;9.112;2023-04-21T12:11:29;96043.38;;;17.93;53.88
9525;BME280;15940;48.734;9.112;2023-04-21T12:13:57;96026.72;;;18.07;52.93
9525;BME280;15940;48.734;9.112;2023-04-21T12:16:25;96026.50;;;18.27;52.33
9525;BME280;15940;48.734;9.112;2023-04-21T12:18:53;96016.88;;;18.11;53.88
9525;BME280;15940;48.734;9.112;2023-04-21T12:21:26;96016.31;;;18.20;53.80
9525;BME280;15940;48.734;9.112;2023-04-21T12:23:53;96022.69;;;18.31;53.30
9525;BME280;15940;48.734;9.112;2023-04-21T12:26:20;96021.91;;;18.45;51.59
9525;BME280;15940;48.734;9.112;2023-04-21T12:28:48;96018.25;;;18.43;50.47
9525;BME280;15940;48.734;9.112;2023-04-21T12:31:16;96009.53;;;18.29;50.52
9525;BME280;15940;48.734;9.112;2023-04-21T12:33:44;96011.50;;;18.28;52.07
9525;BME280;15940;48.734;9.112;2023-04-21T12:36:11;96005.75;;;18.72;53.15
9525;BME280;15940;48.734;9.112;2023-04-21T12:38:39;95998.38;;;18.90;50.88
9525;BME280;15940;48.734;9.112;2023-04-21T12:41:06;95994.53;;;19.26;49.07
9525;BME280;15940;48.734;9.112;2023-04-21T12:43:33;95986.84;;;19.24;50.38
9525;BME280;15940;48.734;9.112;2023-04-21T12:46:00;95987.31;;;19.38;50.17
9525;BME280;15940;48.734;9.112;2023-04-21T12:48:27;95986.84;;;19.57;51.86
9525;BME280;15940;48.734;9.112;2023-04-21T12:50:53;95991.41;;;19.79;49.69
9525;BME280;15940;48.734;9.112;2023-04-21T12:53:20;95997.72;;;19.72;49.95
9525;BME280;15940;48.734;9.112;2023-04-21T12:55:49;95997.81;;;19.57;47.12
9525;BME280;15940;48.734;9.112;2023-04-21T12:58:16;95992.34;;;19.57;48.84
9525;BME280;15940;48.734;9.112;2023-04-21T13:00:43;96002.72;;;19.33;47.86
9525;BME280;15940;48.734;9.112;2023-04-21T13:03:10;96002.97;;;19.53;46.52
9525;BME280;15940;48.734;9.112;2023-04-21T13:05:37;95985.41;;;19.48;48.70
9525;BME280;15940;48.734;9.112;2023-04-21T13:08:04;95977.47;;;19.60;50.42
9525;BME280;15940;48.734;9.112;2023-04-21T13:10:31;95980.69;;;19.74;50.20
9525;BME280;15940;48.734;9.112;2023-04-21T13:12:59;95988.03;;;19.71;48.39
9525;BME280;15940;48.734;9.112;2023-04-21T13:15:26;95981.84;;;19.63;49.99
9525;BME280;15940;48.734;9.112;2023-04-21T13:17:53;95980.72;;;19.66;49.43
9525;BME280;15940;48.734;9.112;2023-04-21T13:20:20;95969.22;;;19.85;49.83
9525;BME280;15940;48.734;9.112;2023-04-21T13:22:47;95973.84;;;20.17;53.67
9525;BME280;15940;48.734;9.112;2023-04-21T13:25:15;95969.00;;;20.25;48.90